< < Back
Terminal Aerodrome Forecast


Current Version              Previous Versions:   1  2  3  4  5  6  7  8  9  

Terminal Aerodrome Forecast

222
FTUS44 KBMX 021400 AAA
TAFTCL
TAF AMD
KTCL 021440Z 0215/0312 03005KT 5SM -SHRA BR OVC007=

Latest METAR

851
SAUS70 KWBC 030800 RRD
MTRTCL
METAR KTCL 030753Z AUTO 00000KT 2 1/2SM BR OVC007 11/09 A3018 RMK AO2
SLP219 T01060094


USA.gov is the U.S. government's official web portal to all federal, state and local government web resources and services.